Time;durP1;ratioP1;P1;durP2;ratioP2;P2;SDS_P1;SDS_P2;PMS_P1;PMS_P2;Temp;Humidity;BMP_temperature;BMP_pressure;BME280_temperature;BME280_humidity;BME280_pressure;Samples;Min_cycle;Max_cycle;Signal;HPM_P1;HPM_P2
2022/11/20 00:01:24;;;;;;;4.37;3.97;;;16.70;66.80;17.60;100375.00;;;;5070016;28;20201;-51
2022/11/20 00:03:54;;;;;;;4.67;4.23;;;16.70;66.80;17.60;100382.00;;;;5052597;28;20611;-49
2022/11/20 00:06:20;;;;;;;4.40;4.10;;;16.60;66.70;17.60;100380.00;;;;5069629;28;20197;-48
2022/11/20 00:08:46;;;;;;;4.40;4.00;;;16.60;66.80;17.60;100383.00;;;;5069882;28;20178;-52
2022/11/20 00:11:18;;;;;;;4.30;4.00;;;16.60;66.80;17.60;100377.00;;;;5069492;28;20180;-53
2022/11/20 00:13:44;;;;;;;4.43;4.10;;;16.60;66.90;17.50;100376.00;;;;5069564;28;20186;-51
2022/11/20 00:16:12;;;;;;;4.53;4.13;;;16.60;67.00;17.50;100377.00;;;;5069207;28;20208;-50
2022/11/20 00:18:38;;;;;;;4.53;4.13;;;16.60;67.00;17.50;100374.00;;;;5051735;28;20181;-50
2022/11/20 00:21:25;;;;;;;4.50;4.10;;;16.50;66.80;17.50;100368.00;;;;5068958;28;20201;-50
2022/11/20 00:23:52;;;;;;;4.57;4.17;;;16.50;66.90;17.50;100378.00;;;;5068357;28;20190;-51
2022/11/20 00:26:19;;;;;;;4.47;4.00;;;16.50;67.00;17.50;100372.00;;;;5069061;28;20781;-50
2022/11/20 00:28:50;;;;;;;4.30;4.00;;;16.50;67.00;17.50;100368.00;;;;5069315;28;20205;-50
2022/11/20 00:31:16;;;;;;;4.10;3.80;;;16.50;67.00;17.40;100368.00;;;;5054619;28;20166;-51
2022/11/20 00:33:42;;;;;;;4.10;3.80;;;16.40;66.90;17.40;100363.00;;;;5069783;28;20181;-51
2022/11/20 00:36:14;;;;;;;4.10;3.80;;;16.50;67.10;17.40;100370.00;;;;5068109;28;20222;-51
2022/11/20 00:38:40;;;;;;;4.20;3.90;;;16.50;67.90;17.40;100364.00;;;;5050474;28;20253;-50
2022/11/20 00:41:08;;;;;;;4.70;4.20;;;16.40;67.00;17.40;100359.00;;;;5068071;28;20281;-50
2022/11/20 00:43:34;;;;;;;4.13;3.83;;;16.40;67.00;17.40;100371.00;;;;5068478;28;20173;-48
2022/11/20 00:46:04;;;;;;;4.43;4.13;;;16.40;67.00;17.30;100369.00;;;;5068950;28;20559;-50
2022/11/20 00:48:30;;;;;;;4.30;3.90;;;16.30;67.00;17.30;100378.00;;;;5069068;28;20207;-49
2022/11/20 00:50:56;;;;;;;4.70;4.30;;;16.30;67.00;17.10;100369.00;;;;5069161;28;20570;-49
2022/11/20 00:53:21;;;;;;;4.40;4.10;;;16.30;67.10;17.30;100379.00;;;;5052255;28;20178;-50
2022/11/20 00:56:07;;;;;;;4.00;3.70;;;16.30;67.10;17.30;100383.00;;;;5069257;28;20193;-50
2022/11/20 00:58:36;;;;;;;4.50;4.20;;;16.30;67.00;17.30;100379.00;;;;5068633;28;20550;-48
2022/11/20 01:01:07;;;;;;;4.10;3.80;;;16.30;67.00;17.30;100372.00;;;;5068197;28;20355;-49
2022/11/20 01:03:35;;;;;;;4.20;3.90;;;16.30;67.00;17.30;100376.00;;;;5068120;28;20749;-51
2022/11/20 01:06:02;;;;;;;4.60;4.20;;;16.30;66.90;17.30;100366.00;;;;5067223;28;20193;-48
2022/11/20 01:08:34;;;;;;;4.00;3.70;;;16.30;66.90;17.30;100374.00;;;;5050241;28;20177;-48
2022/11/20 01:11:12;;;;;;;4.10;3.80;;;16.20;66.90;17.30;100371.00;;;;5068165;28;20174;-49
2022/11/20 01:13:38;;;;;;;4.00;3.70;;;16.20;66.90;17.30;100364.00;;;;5068044;28;20158;-49
2022/11/20 01:16:11;;;;;;;4.10;3.80;;;16.20;67.00;17.30;100362.00;;;;5067413;28;20201;-50
2022/11/20 01:18:38;;;;;;;4.37;4.03;;;16.20;67.00;17.30;100362.00;;;;5067797;28;20181;-50
2022/11/20 01:21:09;;;;;;;4.10;3.80;;;16.20;67.00;17.30;100365.00;;;;5067640;28;20224;-50
2022/11/20 01:23:36;;;;;;;4.27;3.90;;;16.10;66.90;17.30;100360.00;;;;5067810;28;20273;-49
2022/11/20 01:26:05;;;;;;;4.20;3.90;;;16.10;66.90;17.30;100343.00;;;;5067774;28;20205;-49
2022/11/20 01:28:31;;;;;;;4.07;3.77;;;16.10;66.90;17.30;100365.00;;;;5067776;28;20252;-49
2022/11/20 01:30:57;;;;;;;3.93;3.63;;;16.10;67.00;17.30;100357.00;;;;5068139;28;20253;-49
2022/11/20 01:33:22;;;;;;;4.00;3.70;;;16.10;67.00;17.30;100358.00;;;;5049952;28;20201;-49
2022/11/20 01:35:48;;;;;;;4.03;3.73;;;16.10;67.00;17.30;100355.00;;;;5067951;28;20490;-48
2022/11/20 01:38:15;;;;;;;3.83;3.53;;;16.00;67.10;17.30;100357.00;;;;5071641;28;20177;-49
2022/11/20 01:40:41;;;;;;;4.03;3.73;;;16.00;67.00;17.30;100353.00;;;;5071795;28;20209;-49
2022/11/20 01:43:28;;;;;;;4.50;3.83;;;16.00;66.90;17.30;100303.00;;;;5071800;28;20661;-49
2022/11/20 01:46:17;;;;;;;4.37;4.07;;;16.00;67.20;17.20;100352.00;;;;5072200;28;20205;-50
2022/11/20 01:48:59;;;;;;;4.13;3.83;;;16.00;67.20;17.20;100350.00;;;;5071726;28;20168;-49
2022/11/20 01:51:47;;;;;;;4.07;3.77;;;16.00;67.20;17.20;100355.00;;;;5071605;28;20176;-49
2022/11/20 01:54:22;;;;;;;4.30;3.90;;;16.00;67.10;17.20;100349.00;;;;5054077;28;20607;-49
2022/11/20 01:56:48;;;;;;;4.20;3.90;;;16.00;67.10;17.20;100351.00;;;;5053912;28;20246;-50
2022/11/20 01:59:15;;;;;;;3.93;3.63;;;16.00;67.20;17.20;100353.00;;;;5037435;28;20867;-48
2022/11/20 02:01:41;;;;;;;4.20;3.87;;;15.90;67.00;17.10;100357.00;;;;5053484;28;20792;-50
2022/11/20 02:04:07;;;;;;;4.10;3.80;;;15.90;67.10;17.10;100348.00;;;;5071344;28;20170;-50
2022/11/20 02:06:38;;;;;;;3.97;3.67;;;15.90;67.90;17.10;100343.00;;;;5053719;28;20162;-49
2022/11/20 02:09:04;;;;;;;3.87;3.57;;;15.90;67.10;17.10;100350.00;;;;5021456;28;20602;-49
2022/11/20 02:11:30;;;;;;;4.00;3.70;;;15.90;67.20;17.10;100354.00;;;;5071637;28;20191;-49
2022/11/20 02:13:56;;;;;;;3.90;3.60;;;15.90;67.30;17.10;100354.00;;;;5071152;28;20219;-49
2022/11/20 02:16:25;;;;;;;4.00;3.70;;;15.90;67.30;17.10;100359.00;;;;5056335;28;20731;-52
2022/11/20 02:18:51;;;;;;;4.20;3.90;;;15.80;67.30;17.10;100348.00;;;;5055391;28;20185;-50
2022/11/20 02:21:40;;;;;;;4.27;3.97;;;15.90;67.40;17.10;100322.00;;;;5070871;28;20202;-48
2022/11/20 02:24:19;;;;;;;3.83;3.53;;;15.80;67.40;17.00;100332.00;;;;5022162;28;20275;-51
2022/11/20 02:26:54;;;;;;;3.90;3.60;;;15.80;67.40;17.00;100331.00;;;;5054171;28;20150;-50
2022/11/20 02:29:48;;;;;;;3.67;3.37;;;15.80;67.40;17.00;100324.00;;;;5070874;28;20176;-49
2022/11/20 02:32:30;;;;;;;4.00;3.70;;;15.80;67.40;17.00;100324.00;;;;5056038;28;20561;-49
2022/11/20 02:34:56;;;;;;;3.70;3.40;;;15.80;67.40;17.00;100316.00;;;;5070382;28;20208;-50
2022/11/20 02:37:22;;;;;;;3.73;3.43;;;15.80;67.60;17.00;100304.00;;;;5052756;28;20186;-49
2022/11/20 02:39:49;;;;;;;3.80;3.50;;;15.80;67.40;17.00;100314.00;;;;5036308;28;20177;-50
2022/11/20 02:42:15;;;;;;;3.70;3.40;;;15.80;67.50;17.00;100317.00;;;;5070460;28;20190;-50
2022/11/20 02:44:41;;;;;;;4.00;3.70;;;15.80;67.50;17.00;100322.00;;;;5070692;28;20260;-51
2022/11/20 02:47:07;;;;;;;4.10;3.80;;;15.80;67.60;17.00;100315.00;;;;5070460;28;20166;-50
2022/11/20 02:49:33;;;;;;;3.90;3.60;;;15.70;67.40;16.90;100309.00;;;;5070615;28;20539;-48
2022/11/20 02:51:58;;;;;;;3.60;3.30;;;15.70;67.30;16.90;100308.00;;;;5070612;28;20178;-51
2022/11/20 02:54:24;;;;;;;4.20;3.90;;;15.70;67.30;16.90;100302.00;;;;5070184;28;20607;-51
2022/11/20 02:56:50;;;;;;;3.90;3.60;;;15.70;67.40;16.90;100292.00;;;;5070528;28;20218;-49
2022/11/20 02:59:16;;;;;;;3.90;3.60;;;15.70;67.20;16.90;100298.00;;;;5070134;28;20533;-50
2022/11/20 03:01:41;;;;;;;3.83;3.53;;;15.60;67.30;16.90;100294.00;;;;5069989;28;20705;-50
2022/11/20 03:04:07;;;;;;;3.70;3.40;;;15.70;68.30;16.90;100301.00;;;;5069997;28;20177;-50
2022/11/20 03:06:33;;;;;;;3.80;3.50;;;15.70;67.40;16.90;100295.00;;;;5070079;28;20181;-51
2022/11/20 03:08:58;;;;;;;4.20;3.90;;;15.60;67.30;16.90;100287.00;;;;5069978;28;20225;-48
2022/11/20 03:11:24;;;;;;;3.83;3.53;;;15.60;67.40;16.90;100287.00;;;;5069896;28;20306;-50
2022/11/20 03:13:50;;;;;;;4.20;3.90;;;15.60;67.40;16.90;100294.00;;;;5069831;28;20215;-51
2022/11/20 03:16:18;;;;;;;3.80;3.50;;;15.60;67.40;16.90;100289.00;;;;5069987;28;20217;-50
2022/11/20 03:18:44;;;;;;;4.00;3.70;;;15.60;67.30;16.80;100294.00;;;;5069835;28;20572;-50
2022/11/20 03:21:10;;;;;;;3.80;3.50;;;15.60;67.30;16.80;100301.00;;;;5069494;28;20212;-50
2022/11/20 03:23:36;;;;;;;4.00;3.70;;;15.60;67.40;16.80;100310.00;;;;5069642;28;20237;-50
2022/11/20 03:26:12;;;;;;;3.70;3.40;;;15.60;67.40;16.80;100295.00;;;;5069770;28;20292;-48
2022/11/20 03:28:38;;;;;;;3.80;3.50;;;15.60;67.40;16.80;100295.00;;;;5069962;28;20173;-48
2022/11/20 03:31:09;;;;;;;3.87;3.57;;;15.60;67.40;16.80;100297.00;;;;5069315;28;20668;-50
2022/11/20 03:33:34;;;;;;;3.60;3.40;;;15.60;67.30;16.80;100308.00;;;;5069159;28;20205;-50
2022/11/20 03:36:05;;;;;;;3.50;3.20;;;15.60;67.40;16.80;100306.00;;;;5069366;28;20229;-48
2022/11/20 03:38:31;;;;;;;3.83;3.53;;;15.60;67.40;16.80;100301.00;;;;5069230;28;20269;-51
2022/11/20 03:41:12;;;;;;;3.50;3.20;;;15.50;67.30;16.70;100302.00;;;;5051605;28;20205;-50
2022/11/20 03:43:38;;;;;;;3.60;3.37;;;15.60;67.40;16.70;100294.00;;;;5069718;28;20169;-49
2022/11/20 03:46:04;;;;;;;4.07;3.77;;;15.50;67.30;16.70;100300.00;;;;5069713;28;20201;-50
2022/11/20 03:48:30;;;;;;;3.90;3.60;;;15.50;67.20;16.70;100304.00;;;;5069522;28;20169;-51
2022/11/20 03:51:17;;;;;;;3.70;3.40;;;15.50;67.30;16.70;100301.00;;;;5068873;28;20660;-50
2022/11/20 03:53:44;;;;;;;3.80;3.50;;;15.50;67.30;16.70;100300.00;;;;5072665;28;20259;-49
2022/11/20 03:56:10;;;;;;;3.70;3.40;;;15.50;67.30;16.70;100305.00;;;;5072124;28;20185;-49
2022/11/20 03:58:39;;;;;;;3.67;3.37;;;15.40;67.20;16.70;100302.00;;;;5069116;28;20308;-50
2022/11/20 04:01:09;;;;;;;3.67;3.37;;;15.40;67.20;16.70;100297.00;;;;5068601;28;20214;-50
2022/11/20 04:03:36;;;;;;;4.00;3.70;;;15.40;67.30;16.70;100300.00;;;;5068750;28;20204;-51
2022/11/20 04:06:23;;;;;;;3.70;3.40;;;15.40;67.20;16.70;100292.00;;;;5068907;28;20209;-51
2022/11/20 04:08:49;;;;;;;3.87;3.57;;;15.40;67.20;16.70;100297.00;;;;5069182;28;20173;-48
2022/11/20 04:11:20;;;;;;;3.70;3.40;;;15.40;67.20;16.60;100303.00;;;;5069089;28;20188;-48
2022/11/20 04:13:51;;;;;;;3.80;3.50;;;15.40;67.20;16.60;100291.00;;;;5069320;28;20173;-49
2022/11/20 04:16:17;;;;;;;3.70;3.40;;;15.40;67.20;16.60;100296.00;;;;5068566;28;20208;-50
2022/11/20 04:18:43;;;;;;;3.47;3.20;;;15.40;67.20;16.60;100300.00;;;;5068684;28;20185;-49
2022/11/20 04:21:09;;;;;;;3.73;3.43;;;15.30;67.10;16.60;100296.00;;;;5068866;28;20263;-50
2022/11/20 04:23:34;;;;;;;3.77;3.43;;;15.30;67.20;16.60;100290.00;;;;5068784;28;20178;-48
2022/11/20 04:26:10;;;;;;;6.03;3.70;;;15.30;67.70;16.50;100268.00;;;;5068751;28;20190;-50
2022/11/20 04:28:36;;;;;;;8.03;3.80;;;15.30;69.00;16.50;100286.00;;;;5050048;28;20280;-52
2022/11/20 04:31:06;;;;;;;3.97;3.67;;;15.40;68.40;16.50;100282.00;;;;5068515;28;20174;-49
2022/11/20 04:33:33;;;;;;;3.80;3.50;;;15.30;67.70;16.50;100289.00;;;;5068302;28;20177;-51
2022/11/20 04:36:07;;;;;;;3.60;3.30;;;15.30;67.60;16.50;100303.00;;;;5068522;28;20269;-49
2022/11/20 04:38:33;;;;;;;5.50;3.57;;;15.30;67.70;16.50;100302.00;;;;5069115;28;20215;-51
2022/11/20 04:41:03;;;;;;;4.00;3.50;;;15.30;67.80;16.40;100306.00;;;;5068232;28;20862;-48
2022/11/20 04:43:29;;;;;;;3.77;3.47;;;15.30;67.70;16.50;100303.00;;;;5050682;28;20244;-51
2022/11/20 04:45:56;;;;;;;3.90;3.33;;;15.30;67.60;16.40;100283.00;;;;5068253;28;20189;-50
2022/11/20 04:48:22;;;;;;;4.33;3.53;;;15.30;67.60;16.40;100294.00;;;;5050116;28;20196;-49
2022/11/20 04:50:47;;;;;;;3.80;3.50;;;15.30;67.60;16.40;100299.00;;;;5067969;28;20185;-49
2022/11/20 04:53:13;;;;;;;3.60;3.30;;;15.30;67.50;16.40;100296.00;;;;5067838;28;20181;-50
2022/11/20 04:55:39;;;;;;;3.80;3.50;;;15.30;67.40;16.40;100287.00;;;;5067987;28;20692;-50
2022/11/20 04:58:04;;;;;;;3.73;3.43;;;15.20;67.30;16.40;100285.00;;;;5067891;28;20661;-51
2022/11/20 05:00:30;;;;;;;3.90;3.50;;;15.20;67.30;16.40;100279.00;;;;5067787;28;20297;-50
2022/11/20 05:02:56;;;;;;;3.60;3.30;;;15.20;67.30;16.40;100292.00;;;;5068157;28;20174;-50
2022/11/20 05:05:22;;;;;;;3.67;3.37;;;15.20;67.30;16.30;100296.00;;;;5068080;28;20189;-50
2022/11/20 05:07:47;;;;;;;4.33;3.30;;;15.20;67.30;16.30;100289.00;;;;5067617;28;20169;-50
2022/11/20 05:10:13;;;;;;;4.40;3.40;;;15.20;67.30;16.30;100291.00;;;;5067848;28;20185;-50
2022/11/20 05:12:39;;;;;;;3.83;3.50;;;15.20;67.20;16.30;100287.00;;;;5070871;28;20181;-52
2022/11/20 05:15:05;;;;;;;3.70;3.30;;;15.20;67.20;16.30;100292.00;;;;5053987;28;20193;-49
2022/11/20 05:17:30;;;;;;;3.83;3.53;;;15.20;67.20;16.30;100298.00;;;;5072100;28;20254;-49
2022/11/20 05:19:56;;;;;;;3.97;3.40;;;15.20;67.00;16.30;100288.00;;;;5072206;28;20169;-47
2022/11/20 05:22:22;;;;;;;4.30;3.90;;;15.20;67.20;16.30;100296.00;;;;5071798;28;20201;-50
2022/11/20 05:24:47;;;;;;;3.93;3.53;;;15.20;67.20;16.30;100292.00;;;;5053915;28;20189;-50
2022/11/20 05:27:13;;;;;;;5.00;3.60;;;15.20;67.30;16.30;100299.00;;;;5072362;28;20178;-50
2022/11/20 05:29:39;;;;;;;4.27;3.40;;;15.20;67.30;16.30;100292.00;;;;5072116;28;20174;-51
2022/11/20 05:32:07;;;;;;;5.23;3.50;;;15.10;67.20;16.30;100299.00;;;;5072270;28;20174;-50
2022/11/20 05:34:32;;;;;;;4.67;3.80;;;15.10;67.20;16.20;100307.00;;;;5072365;28;20254;-49
2022/11/20 05:36:58;;;;;;;6.60;3.70;;;15.10;67.20;16.20;100294.00;;;;5054497;28;20181;-48
2022/11/20 05:39:24;;;;;;;7.93;4.13;;;15.10;67.20;16.20;100291.00;;;;5072500;28;20178;-48
2022/11/20 05:42:29;;;;;;;9.13;3.80;;;15.10;67.20;16.20;100280.00;;;;5068546;28;20281;-49
2022/11/20 05:44:35;;;;;;;11.40;3.80;;;15.10;67.20;16.20;100293.00;;;;5051933;28;20547;-48
2022/11/20 05:47:01;;;;;;;13.43;4.40;;;15.10;67.30;16.20;100285.00;;;;5051949;28;20228;-49
2022/11/20 05:49:26;;;;;;;9.03;4.10;;;15.10;67.20;16.20;100287.00;;;;5052198;28;20170;-50
2022/11/20 05:51:52;;;;;;;9.47;4.27;;;15.00;67.20;16.20;100284.00;;;;5051618;28;20228;-49
2022/11/20 05:54:18;;;;;;;8.60;3.63;;;15.00;67.20;16.20;100288.00;;;;5051815;28;20597;-50
2022/11/20 05:56:44;;;;;;;9.20;3.90;;;15.00;67.20;16.10;100294.00;;;;5052101;28;20713;-52
2022/11/20 05:59:09;;;;;;;9.23;3.70;;;15.00;67.20;16.10;100288.00;;;;5051708;28;20178;-50
2022/11/20 06:01:35;;;;;;;9.93;3.90;;;15.00;67.30;16.10;100290.00;;;;5051040;28;20292;-49
2022/11/20 06:04:01;;;;;;;7.43;3.97;;;15.00;67.20;16.10;100294.00;;;;5052142;28;20175;-50
2022/11/20 06:06:27;;;;;;;4.87;3.63;;;15.00;67.20;16.10;100292.00;;;;5051850;28;20190;-50
2022/11/20 06:08:54;;;;;;;9.63;4.10;;;15.00;67.40;16.10;100295.00;;;;5051779;28;20170;-51
2022/11/20 06:11:19;;;;;;;6.23;3.70;;;15.00;67.60;16.10;100290.00;;;;5051478;28;20194;-50
2022/11/20 06:13:45;;;;;;;6.30;4.03;;;15.00;67.60;16.10;100301.00;;;;5051585;28;20174;-50
2022/11/20 06:16:12;;;;;;;6.57;3.90;;;15.00;67.50;16.10;100291.00;;;;5051377;28;20547;-49
2022/11/20 06:18:38;;;;;;;9.03;4.13;;;15.00;67.40;16.10;100262.00;;;;5050393;28;20158;-50
2022/11/20 06:21:13;;;;;;;7.13;4.30;;;15.00;67.40;16.10;100297.00;;;;5050430;28;20199;-50
2022/11/20 06:23:38;;;;;;;7.07;4.30;;;15.00;67.40;16.10;100290.00;;;;5050324;28;20182;-49
2022/11/20 06:26:06;;;;;;;8.30;4.00;;;15.00;67.20;16.10;100291.00;;;;5051046;28;20977;-52
2022/11/20 06:28:32;;;;;;;7.37;3.80;;;14.90;67.20;16.10;100292.00;;;;5050609;28;20239;-48
2022/11/20 06:30:58;;;;;;;7.13;4.33;;;14.90;67.40;16.10;100289.00;;;;5051428;28;20177;-50
2022/11/20 06:33:24;;;;;;;7.17;4.50;;;14.90;67.40;16.00;100287.00;;;;5049176;28;20743;-50
2022/11/20 06:35:50;;;;;;;6.57;4.37;;;14.90;67.40;16.00;100283.00;;;;5051169;28;20190;-49
2022/11/20 06:38:16;;;;;;;5.57;4.10;;;14.90;67.40;16.00;100281.00;;;;5051107;28;20563;-50
2022/11/20 06:40:42;;;;;;;6.30;4.00;;;14.80;67.20;16.00;100283.00;;;;5051274;28;20194;-52
2022/11/20 06:43:09;;;;;;;8.20;3.83;;;14.80;67.20;16.00;100276.00;;;;5050640;28;20193;-51
2022/11/20 06:45:35;;;;;;;4.97;4.33;;;14.80;67.20;16.00;100302.00;;;;5051176;28;20186;-49
2022/11/20 06:48:01;;;;;;;4.77;4.10;;;14.80;67.30;16.00;100290.00;;;;5051142;28;20271;-49
2022/11/20 06:50:26;;;;;;;4.73;4.20;;;14.80;67.20;16.00;100295.00;;;;5051195;28;20202;-48
2022/11/20 06:52:52;;;;;;;5.80;3.87;;;14.80;67.20;16.00;100296.00;;;;5032749;28;20193;-51
2022/11/20 06:55:18;;;;;;;4.27;3.87;;;14.80;67.20;15.90;100294.00;;;;5050783;28;20190;-50
2022/11/20 06:57:43;;;;;;;5.30;4.10;;;14.80;67.30;15.90;100292.00;;;;5050657;28;20174;-49
2022/11/20 07:00:10;;;;;;;5.97;4.00;;;14.70;67.30;15.90;100285.00;;;;5051031;28;20166;-50
2022/11/20 07:02:36;;;;;;;4.20;3.90;;;14.80;67.30;15.90;100287.00;;;;5049886;28;20654;-49
2022/11/20 07:05:02;;;;;;;5.50;3.57;;;14.70;67.30;15.90;100286.00;;;;5050570;28;20190;-50
2022/11/20 07:07:27;;;;;;;4.40;3.93;;;14.70;67.30;15.90;100295.00;;;;5050661;28;20183;-49
2022/11/20 07:09:53;;;;;;;4.30;3.90;;;14.70;68.10;15.90;100305.00;;;;5050358;28;20692;-51
2022/11/20 07:12:19;;;;;;;4.87;4.23;;;14.70;67.30;15.90;100307.00;;;;5049935;28;20167;-50
2022/11/20 07:14:45;;;;;;;4.47;4.07;;;14.70;67.30;15.90;100310.00;;;;5050415;28;20194;-51
2022/11/20 07:17:11;;;;;;;5.10;4.17;;;14.70;67.30;15.90;100317.00;;;;5050288;28;20565;-49
2022/11/20 07:19:37;;;;;;;4.80;3.83;;;14.70;67.40;15.90;100310.00;;;;5051078;28;20667;-50
2022/11/20 07:22:02;;;;;;;4.37;4.00;;;14.70;67.40;15.90;100316.00;;;;5050335;28;20198;-50
2022/11/20 07:24:28;;;;;;;4.00;3.70;;;14.60;67.30;15.90;100316.00;;;;5050232;28;20192;-50
2022/11/20 07:26:54;;;;;;;4.40;4.00;;;14.60;67.30;15.80;100316.00;;;;5050714;28;20516;-49
2022/11/20 07:29:19;;;;;;;4.33;3.93;;;14.60;67.30;15.80;100306.00;;;;5050349;28;20202;-53
2022/11/20 07:31:45;;;;;;;4.30;3.90;;;14.60;67.40;15.80;100320.00;;;;5049497;28;20186;-49
2022/11/20 07:34:11;;;;;;;4.27;3.97;;;14.60;67.30;15.80;100314.00;;;;5049511;28;20251;-50
2022/11/20 07:36:37;;;;;;;4.10;3.77;;;14.60;67.20;15.80;100253.00;;;;5050461;28;20174;-49
2022/11/20 07:39:03;;;;;;;4.00;3.70;;;14.60;67.20;15.80;100322.00;;;;5049760;28;20216;-49
2022/11/20 07:41:28;;;;;;;14.63;3.90;;;14.60;67.20;15.80;100331.00;;;;5049431;28;20198;-50
2022/11/20 07:43:54;;;;;;;4.57;3.70;;;14.60;67.20;15.80;100336.00;;;;5049914;28;20249;-50
2022/11/20 07:46:20;;;;;;;4.30;4.00;;;14.60;67.30;15.80;100324.00;;;;5049579;28;20243;-49
2022/11/20 07:48:46;;;;;;;4.73;3.80;;;14.50;67.20;15.80;100335.00;;;;5048509;28;20166;-52
2022/11/20 07:51:11;;;;;;;6.97;3.93;;;14.60;67.70;15.80;100323.00;;;;5049671;28;20170;-48
2022/11/20 07:53:37;;;;;;;4.10;3.70;;;14.50;67.70;15.80;100330.00;;;;5049130;28;20170;-51
2022/11/20 07:56:03;;;;;;;4.07;3.67;;;14.50;67.70;15.80;100323.00;;;;5049485;28;20193;-49
2022/11/20 07:58:29;;;;;;;5.63;4.03;;;14.50;67.80;15.70;100315.00;;;;5050213;28;20177;-49
2022/11/20 08:00:56;;;;;;;6.27;3.77;;;14.60;67.80;15.80;100293.00;;;;5049512;28;20202;-49
2022/11/20 08:03:21;;;;;;;4.20;3.90;;;14.70;67.70;15.80;100307.00;;;;4996019;28;20207;-50
2022/11/20 08:05:47;;;;;;;6.40;3.70;;;14.70;67.80;15.80;100310.00;;;;5068048;28;20623;-50
2022/11/20 08:08:13;;;;;;;4.30;3.90;;;14.90;67.90;15.80;100317.00;;;;5064731;28;20520;-51
2022/11/20 08:10:38;;;;;;;4.30;3.90;;;15.00;67.80;15.90;100317.00;;;;5048769;28;20181;-50
2022/11/20 08:15:50;;;;;;;4.80;3.80;;;15.30;67.70;16.00;100304.00;;;;5052659;28;20297;-49
2022/11/20 08:18:17;;;;;;;5.73;3.60;;;15.40;67.20;16.10;100308.00;;;;5069228;28;20193;-50
2022/11/20 08:20:43;;;;;;;3.80;3.50;;;15.60;67.00;16.20;100302.00;;;;5060839;28;20197;-49
2022/11/20 08:23:09;;;;;;;4.47;3.60;;;15.70;66.80;16.30;100304.00;;;;5061165;28;20203;-50
2022/11/20 08:25:37;;;;;;;4.57;3.53;;;15.80;66.40;16.40;100300.00;;;;5066847;28;20267;-51
2022/11/20 08:28:08;;;;;;;3.77;3.47;;;16.00;66.10;16.50;100308.00;;;;5047393;28;20170;-49
2022/11/20 08:30:34;;;;;;;4.07;3.50;;;16.20;66.00;16.60;100313.00;;;;5047460;28;20666;-52
2022/11/20 08:33:08;;;;;;;3.40;3.10;;;16.30;65.50;16.70;100296.00;;;;5047490;28;20715;-52
2022/11/20 08:35:35;;;;;;;4.10;3.40;;;16.40;65.60;16.80;100298.00;;;;5031904;28;20190;-51
2022/11/20 08:38:02;;;;;;;4.53;3.60;;;16.60;65.40;16.90;100298.00;;;;5049178;28;20257;-48
2022/11/20 08:40:28;;;;;;;3.60;3.30;;;16.70;65.10;17.00;100298.00;;;;5048398;28;20188;-51
2022/11/20 08:42:54;;;;;;;3.50;3.20;;;16.90;64.90;17.10;100304.00;;;;5048578;28;20172;-52
2022/11/20 08:45:19;;;;;;;3.37;3.13;;;17.00;64.90;17.20;100303.00;;;;5048627;28;20210;-49
2022/11/20 08:47:45;;;;;;;3.97;3.67;;;17.10;64.70;17.30;100307.00;;;;5048657;28;20177;-50
2022/11/20 08:50:12;;;;;;;3.60;3.30;;;17.20;64.50;17.40;100308.00;;;;5048155;28;20186;-50
2022/11/20 08:52:38;;;;;;;3.87;3.50;;;17.30;64.50;17.50;100306.00;;;;5049159;28;20174;-50
2022/11/20 08:55:05;;;;;;;7.37;3.47;;;17.40;64.50;17.60;100312.00;;;;5048329;28;20790;-52
2022/11/20 08:57:34;;;;;;;6.60;3.30;;;17.30;65.00;17.70;100310.00;;;;5048412;28;20182;-50
2022/11/20 09:00:00;;;;;;;5.63;3.33;;;17.40;64.90;17.80;100307.00;;;;5043214;28;20650;-52
2022/11/20 09:02:26;;;;;;;7.03;3.60;;;17.60;64.80;17.80;100305.00;;;;5001015;28;20202;-52
2022/11/20 09:04:53;;;;;;;6.97;3.40;;;17.70;64.70;17.90;100313.00;;;;5068223;28;20608;-51
2022/11/20 09:07:19;;;;;;;5.83;3.57;;;17.80;64.50;18.00;100303.00;;;;5069246;28;20182;-50
2022/11/20 09:09:45;;;;;;;12.30;3.70;;;17.90;64.50;18.10;100305.00;;;;5068151;28;20166;-52
2022/11/20 09:12:11;;;;;;;14.47;3.73;;;18.00;64.40;18.20;100311.00;;;;5067717;28;20185;-50
2022/11/20 09:14:36;;;;;;;7.13;3.53;;;18.10;64.30;18.30;100309.00;;;;5068089;28;20199;-51
2022/11/20 09:17:02;;;;;;;10.20;3.87;;;18.20;64.30;18.30;100316.00;;;;5068380;28;20189;-50
2022/11/20 09:19:28;;;;;;;9.77;3.97;;;18.20;64.30;18.40;100304.00;;;;5050416;28;20183;-50
2022/11/20 09:21:54;;;;;;;10.03;3.47;;;18.30;64.50;18.50;100299.00;;;;5057016;28;20240;-52
2022/11/20 09:24:20;;;;;;;9.67;3.67;;;18.30;64.30;18.60;100309.00;;;;5048282;28;20827;-50
2022/11/20 09:26:46;;;;;;;9.73;3.70;;;18.40;64.40;18.70;100309.00;;;;5049054;28;20188;-50
2022/11/20 09:29:12;;;;;;;7.17;3.73;;;18.40;64.30;18.70;100301.00;;;;5048829;28;20175;-50
2022/11/20 09:31:38;;;;;;;8.00;3.80;;;18.50;64.20;18.80;100295.00;;;;5048221;28;20649;-49
2022/11/20 09:34:03;;;;;;;9.03;3.80;;;18.60;64.20;18.80;100295.00;;;;5048499;28;20186;-50
2022/11/20 09:36:29;;;;;;;9.40;3.53;;;18.70;64.30;18.90;100292.00;;;;5048312;28;20175;-50
2022/11/20 09:38:56;;;;;;;7.40;3.50;;;18.70;64.20;19.00;100289.00;;;;5048288;28;20703;-51
2022/11/20 09:42:04;;;;;;;9.43;3.80;;;18.70;64.20;19.00;100288.00;;;;5048295;28;20216;-51
2022/11/20 09:44:51;;;;;;;9.13;3.67;;;18.70;64.30;19.10;100278.00;;;;5030677;28;20208;-50
2022/11/20 09:47:27;;;;;;;9.87;3.50;;;18.70;64.50;19.10;100277.00;;;;5048044;28;20168;-49
2022/11/20 09:50:20;;;;;;;8.30;3.57;;;18.80;64.60;19.10;100286.00;;;;5036478;28;20193;-48
2022/11/20 09:52:57;;;;;;;10.70;3.67;;;18.70;64.80;19.10;100259.00;;;;5050028;28;20167;-50
2022/11/20 09:55:23;;;;;;;10.07;3.60;;;18.70;64.80;18.90;100280.00;;;;5051383;28;20255;-49
2022/11/20 09:57:51;;;;;;;4.07;3.53;;;18.70;65.20;19.20;100288.00;;;;5069221;28;20180;-51
2022/11/20 10:00:17;;;;;;;7.97;3.40;;;18.80;64.80;19.20;100220.00;;;;5054520;28;20169;-50
2022/11/20 10:03:06;;;;;;;10.43;3.60;;;18.80;64.80;19.20;100258.00;;;;5020555;28;20678;-50
2022/11/20 10:05:40;;;;;;;7.87;3.63;;;18.80;64.80;19.20;100267.00;;;;5053396;28;20201;-51
2022/11/20 10:08:21;;;;;;;6.13;3.60;;;18.80;65.00;19.20;100268.00;;;;5038320;28;20542;-50
2022/11/20 10:11:13;;;;;;;4.80;3.33;;;18.80;65.00;19.30;100256.00;;;;5037401;28;20189;-50
2022/11/20 10:14:03;;;;;;;8.03;3.20;;;18.80;66.00;19.30;100268.00;;;;5039491;28;20189;-52
2022/11/20 10:16:44;;;;;;;10.03;3.50;;;18.80;67.00;19.30;100275.00;;;;5052114;28;20210;-50
2022/11/20 10:19:21;;;;;;;5.27;3.13;;;18.80;66.80;19.30;100270.00;;;;5034083;28;20197;-50
2022/11/20 10:22:17;;;;;;;6.83;3.43;;;18.80;66.60;19.30;100276.00;;;;5051260;28;20589;-51
2022/11/20 10:25:14;;;;;;;8.27;3.40;;;18.80;66.30;19.30;100268.00;;;;5051862;28;20198;-50
2022/11/20 10:28:02;;;;;;;6.60;3.33;;;18.80;66.30;19.30;100263.00;;;;5051893;28;20212;-49
2022/11/20 10:30:30;;;;;;;5.00;3.43;;;18.80;66.40;19.30;100255.00;;;;5050417;28;20158;-49
2022/11/20 10:33:21;;;;;;;4.33;3.13;;;18.70;66.40;19.30;100253.00;;;;5049849;28;20611;-51
2022/11/20 10:35:56;;;;;;;11.80;3.67;;;18.70;66.50;19.30;100262.00;;;;5040424;28;20624;-52
2022/11/20 10:38:45;;;;;;;6.40;3.30;;;18.70;67.40;19.30;100239.00;;;;5050242;28;20657;-52
2022/11/20 10:41:26;;;;;;;6.90;3.10;;;18.70;66.90;19.30;100237.00;;;;5050287;28;20667;-50
2022/11/20 10:47:16;;;;;;;7.43;3.30;;;18.60;67.00;19.20;100234.00;;;;5037560;28;20225;-50
2022/11/20 10:49:46;;;;;;;9.23;3.83;;;18.50;67.10;19.20;100235.00;;;;5050164;28;20177;-49
2022/11/20 10:52:52;;;;;;;9.10;3.50;;;18.50;67.20;19.20;100224.00;;;;5049803;28;20351;-50
2022/11/20 10:55:38;;;;;;;5.00;3.40;;;18.50;67.00;19.20;100216.00;;;;5051331;28;20202;-50
2022/11/20 10:58:10;;;;;;;6.67;3.20;;;18.40;67.00;19.10;100218.00;;;;5049436;28;20182;-52
2022/11/20 11:00:35;;;;;;;3.73;3.13;;;18.40;67.00;19.10;100212.00;;;;5066232;28;20192;-49
2022/11/20 11:03:02;;;;;;;4.37;3.30;;;18.30;66.90;19.10;100213.00;;;;5050868;28;20213;-51